Thunder radar more information blitzortung!


Radar de pluja more information rain snow radar


Visita la nostra xarxa de llocs de meteo:

Template documentation
and downloads

And another site



No particular awareness of the weather is required.    There are no Weather-warnings

Pagina Historial Weather Underground text

Diari Resum Novembre 22, 2017 Unitats:  Tant    Imperial   Mètric
« Previous Dia
SegĂźent Dia »
Diari Setmana Mensual Anual Personalitzada
  Maxima: Minima: Media:
Temperatura: 65.3 °F /  18.5 °C 39.2 °F /  4.0 °C 53.1 °F /  11.7 °C
Punt de rosada: 50.5 °F /  10.3 °C 28.2 °F /  -2.1 °C 43.2 °F /  6.2 °C
Humitat: 85 % 55 % 70 %
Wind Speed: 8.1 mph /  13.0 km/h - 2.2 mph /  3.5 km/h
RĂ fegues de vent: 8.1 mph /  13.0 km/h - -
Vent:- - SW
Pression baro: 30.1 in /  1018.8 hPa 30 in /  1014.8 hPa -
Precipitacions: 0 in /  0.0 mm    
Historical Graphs
 
 
Dades de taula per Novembre 22, 2017
Temps Temperatura Punt de rosada Pression baro Vent Wind Speed RĂ fegues de vent Humitat Rainfall Rate (Hourly)
00:01 46.4 °F /  8.0 °C 31.1 °F /  -0.5 °C 30.1 in /  1018.8 hPa Calm     55 % 0 in /  0.0 mm
00:10 40.5 °F /  4.7 °C 28.8 °F /  -1.8 °C 30.1 in /  1017.8 hPa Calm     63 % 0 in /  0.0 mm
00:30 39.9 °F /  4.4 °C 28.2 °F /  -2.1 °C 30.1 in /  1017.8 hPa Calm     63 % 0 in /  0.0 mm
00:40 39.7 °F /  4.3 °C 28.6 °F /  -1.9 °C 30.1 in /  1017.8 hPa Calm     64 % 0 in /  0.0 mm
01:00 39.6 °F /  4.2 °C 28.4 °F /  -2.0 °C 30.1 in /  1017.8 hPa Calm     64 % 0 in /  0.0 mm
01:10 39.6 °F /  4.2 °C 28.8 °F /  -1.8 °C 30.1 in /  1017.8 hPa Calm     65 % 0 in /  0.0 mm
01:20 39.7 °F /  4.3 °C 28.9 °F /  -1.7 °C 30.1 in /  1017.8 hPa Calm     65 % 0 in /  0.0 mm
01:30 39.7 °F /  4.3 °C 28.9 °F /  -1.7 °C 30.1 in /  1017.8 hPa WSW 1 mph /  1.6 km/h 1 mph /  1.6 km/h 65 % 0 in /  0.0 mm
01:50 39.4 °F /  4.1 °C 28.6 °F /  -1.9 °C 30 in /  1016.8 hPa Calm   2 mph /  3.2 km/h 65 % 0 in /  0.0 mm
02:10 39.2 °F /  4.0 °C 28.8 °F /  -1.8 °C 30.1 in /  1017.8 hPa Calm     66 % 0 in /  0.0 mm
02:30 39.2 °F /  4.0 °C 28.8 °F /  -1.8 °C 30 in /  1016.8 hPa Calm     66 % 0 in /  0.0 mm
02:40 39.6 °F /  4.2 °C 29.5 °F /  -1.4 °C 30.1 in /  1017.8 hPa Calm   1 mph /  1.6 km/h 67 % 0 in /  0.0 mm
02:50 39.9 °F /  4.4 °C 29.8 °F /  -1.2 °C 30.1 in /  1017.8 hPa Calm     67 % 0 in /  0.0 mm
03:00 39.7 °F /  4.3 °C 29.3 °F /  -1.5 °C 30.1 in /  1018.8 hPa Calm   1 mph /  1.6 km/h 66 % 0 in /  0.0 mm
03:10 39.7 °F /  4.3 °C 29.3 °F /  -1.5 °C 30.1 in /  1017.8 hPa Calm     66 % 0 in /  0.0 mm
03:20 40.5 °F /  4.7 °C 30.4 °F /  -0.9 °C 30.1 in /  1017.8 hPa Calm   1 mph /  1.6 km/h 67 % 0 in /  0.0 mm
03:30 40.6 °F /  4.8 °C 30.2 °F /  -1.0 °C 30.1 in /  1017.8 hPa SW 1 mph /  1.6 km/h 2 mph /  3.2 km/h 66 % 0 in /  0.0 mm
03:50 42.3 °F /  5.7 °C 31.6 °F /  -0.2 °C 30.1 in /  1017.8 hPa NE 1 mph /  1.6 km/h 3 mph /  4.8 km/h 66 % 0 in /  0.0 mm
04:00 43.7 °F /  6.5 °C 32.7 °F /  0.4 °C 30.1 in /  1017.8 hPa NE 2 mph /  3.2 km/h 3 mph /  4.8 km/h 65 % 0 in /  0.0 mm
04:20 44.6 °F /  7.0 °C 33.6 °F /  0.9 °C 30.1 in /  1017.8 hPa Calm   1 mph /  1.6 km/h 65 % 0 in /  0.0 mm
04:30 45.1 °F /  7.3 °C 34.2 °F /  1.2 °C 30.1 in /  1017.8 hPa Calm   2 mph /  3.2 km/h 65 % 0 in /  0.0 mm
04:50 45.5 °F /  7.5 °C 33.6 °F /  0.9 °C 30.1 in /  1017.8 hPa SSW 1 mph /  1.6 km/h 3 mph /  4.8 km/h 63 % 0 in /  0.0 mm
10:55 46.2 °F /  7.9 °C 34.3 °F /  1.3 °C 30.1 in /  1017.8 hPa WSW 2.3 mph /  3.7 km/h 2.3 mph /  3.7 km/h 63 % 0 in /  0.0 mm
11:05 46.9 °F /  8.3 °C 35.1 °F /  1.7 °C 30.1 in /  1018.8 hPa SW 2.3 mph /  3.7 km/h 2.3 mph /  3.7 km/h 63 % 0 in /  0.0 mm
11:10 47.8 °F /  8.8 °C 35.8 °F /  2.1 °C 30.1 in /  1018.8 hPa ESE 1.2 mph /  1.9 km/h   63 % 0 in /  0.0 mm
11:15 48.9 °F /  9.4 °C 36.9 °F /  2.7 °C 30.1 in /  1018.8 hPa Calm     63 % 0 in /  0.0 mm
11:20 50.4 °F /  10.2 °C 38.1 °F /  3.4 °C 30.1 in /  1017.8 hPa South 1.2 mph /  1.9 km/h 1.2 mph /  1.9 km/h 63 % 0 in /  0.0 mm
11:25 51.4 °F /  10.8 °C 38.8 °F /  3.8 °C 30.1 in /  1017.8 hPa SSW 1.2 mph /  1.9 km/h   62 % 0 in /  0.0 mm
11:30 52.5 °F /  11.4 °C 39.9 °F /  4.4 °C 30.1 in /  1017.8 hPa SSW 1.2 mph /  1.9 km/h 1.2 mph /  1.9 km/h 62 % 0 in /  0.0 mm
11:40 54.3 °F /  12.4 °C 41.2 °F /  5.1 °C 30.1 in /  1017.8 hPa SE 2.3 mph /  3.7 km/h 2.3 mph /  3.7 km/h 61 % 0 in /  0.0 mm
11:45 55 °F /  12.8 °C 41.7 °F /  5.4 °C 30.1 in /  1017.8 hPa ESE 2 mph /  3.2 km/h 2 mph /  3.2 km/h 61 % 0 in /  0.0 mm
11:50 54.9 °F /  12.7 °C 41.2 °F /  5.1 °C 30.1 in /  1017.8 hPa NNE 2.3 mph /  3.7 km/h 2.3 mph /  3.7 km/h 60 % 0 in /  0.0 mm
11:55 55.2 °F /  12.9 °C 42.1 °F /  5.6 °C 30.1 in /  1017.8 hPa NE 2.3 mph /  3.7 km/h 2.3 mph /  3.7 km/h 61 % 0 in /  0.0 mm
12:05 56.3 °F /  13.5 °C 43 °F /  6.1 °C 30.1 in /  1017.8 hPa ESE 2.3 mph /  3.7 km/h 2.3 mph /  3.7 km/h 61 % 0 in /  0.0 mm
12:10 56.8 °F /  13.8 °C 43.5 °F /  6.4 °C 30.1 in /  1017.8 hPa ESE 2.3 mph /  3.7 km/h 2.3 mph /  3.7 km/h 61 % 0 in /  0.0 mm
12:15 57.7 °F /  14.3 °C 44.4 °F /  6.9 °C 30.1 in /  1017.8 hPa SW 2.4 mph /  3.9 km/h 2.4 mph /  3.9 km/h 61 % 0 in /  0.0 mm
12:20 58.6 °F /  14.8 °C 45.7 °F /  7.6 °C 30.1 in /  1017.8 hPa SW 1.2 mph /  1.9 km/h 1.2 mph /  1.9 km/h 62 % 0 in /  0.0 mm
12:25 59.5 °F /  15.3 °C 46.9 °F /  8.3 °C 30.1 in /  1017.8 hPa SW 2.9 mph /  4.7 km/h 2.9 mph /  4.7 km/h 63 % 0 in /  0.0 mm
12:26 59.4 °F /  15.2 °C 46.8 °F /  8.2 °C 30.1 in /  1017.8 hPa SW 4.6 mph /  7.4 km/h 4.6 mph /  7.4 km/h 63 % 0 in /  0.0 mm
12:31 59.4 °F /  15.2 °C 46.8 °F /  8.2 °C 30.1 in /  1017.8 hPa WSW 2.6 mph /  4.2 km/h 2.6 mph /  4.2 km/h 63 % 0 in /  0.0 mm
12:36 60.1 °F /  15.6 °C 47.5 °F /  8.6 °C 30.1 in /  1017.8 hPa SSW 3.5 mph /  5.6 km/h 3.5 mph /  5.6 km/h 63 % 0 in /  0.0 mm
12:41 60.6 °F /  15.9 °C 47.8 °F /  8.8 °C 30.1 in /  1017.8 hPa WSW 2.3 mph /  3.7 km/h 2.3 mph /  3.7 km/h 63 % 0 in /  0.0 mm
12:56 62.2 °F /  16.8 °C 49.5 °F /  9.7 °C 30 in /  1016.8 hPa SW 3.5 mph /  5.6 km/h 3.5 mph /  5.6 km/h 63 % 0 in /  0.0 mm
13:01 62.6 °F /  17.0 °C 49.5 °F /  9.7 °C 30 in /  1016.8 hPa West 4.6 mph /  7.4 km/h 4.6 mph /  7.4 km/h 62 % 0 in /  0.0 mm
13:11 62.8 °F /  17.1 °C 49.1 °F /  9.5 °C 30 in /  1016.8 hPa South 2.3 mph /  3.7 km/h 2.3 mph /  3.7 km/h 61 % 0 in /  0.0 mm
13:16 63.3 °F /  17.4 °C 49.6 °F /  9.8 °C 30 in /  1016.8 hPa SSW 3.5 mph /  5.6 km/h 3.5 mph /  5.6 km/h 61 % 0 in /  0.0 mm
13:21 63.3 °F /  17.4 °C 49.6 °F /  9.8 °C 30 in /  1015.8 hPa SSW 3.5 mph /  5.6 km/h 3.5 mph /  5.6 km/h 61 % 0 in /  0.0 mm
13:31 62.6 °F /  17.0 °C 48.9 °F /  9.4 °C 30 in /  1015.8 hPa WSW 3.6 mph /  5.8 km/h 3.6 mph /  5.8 km/h 61 % 0 in /  0.0 mm
13:36 63.1 °F /  17.3 °C 49.5 °F /  9.7 °C 30 in /  1015.8 hPa SW 3.5 mph /  5.6 km/h 3.5 mph /  5.6 km/h 61 % 0 in /  0.0 mm
13:41 63.1 °F /  17.3 °C 48.9 °F /  9.4 °C 30 in /  1015.8 hPa South 5.8 mph /  9.3 km/h 5.8 mph /  9.3 km/h 60 % 0 in /  0.0 mm
13:46 63.5 °F /  17.5 °C 49.5 °F /  9.7 °C 30 in /  1015.8 hPa South 4.6 mph /  7.4 km/h 4.6 mph /  7.4 km/h 60 % 0 in /  0.0 mm
13:56 63.7 °F /  17.6 °C 49.5 °F /  9.7 °C 30 in /  1015.8 hPa South 4.6 mph /  7.4 km/h 4.6 mph /  7.4 km/h 60 % 0 in /  0.0 mm
14:06 64 °F /  17.8 °C 49.8 °F /  9.9 °C 30 in /  1016.8 hPa South 4.6 mph /  7.4 km/h 4.6 mph /  7.4 km/h 60 % 0 in /  0.0 mm
14:11 64.2 °F /  17.9 °C 50 °F /  10.0 °C 30 in /  1016.8 hPa SSW 3.5 mph /  5.6 km/h 3.5 mph /  5.6 km/h 60 % 0 in /  0.0 mm
14:16 64.2 °F /  17.9 °C 50 °F /  10.0 °C 30 in /  1016.8 hPa South 5.6 mph /  9.0 km/h 5.6 mph /  9.0 km/h 60 % 0 in /  0.0 mm
14:21 63.9 °F /  17.7 °C 49.3 °F /  9.6 °C 30 in /  1014.8 hPa West 5.8 mph /  9.3 km/h 5.8 mph /  9.3 km/h 59 % 0 in /  0.0 mm
14:31 64.8 °F /  18.2 °C 50.5 °F /  10.3 °C 30 in /  1014.8 hPa WSW 4.6 mph /  7.4 km/h 4.6 mph /  7.4 km/h 60 % 0 in /  0.0 mm
14:41 64.4 °F /  18.0 °C 49.8 °F /  9.9 °C 30 in /  1015.8 hPa SW 5.8 mph /  9.3 km/h 5.8 mph /  9.3 km/h 59 % 0 in /  0.0 mm
14:51 64.4 °F /  18.0 °C 50.2 °F /  10.1 °C 30 in /  1015.8 hPa SW 2.6 mph /  4.2 km/h 2.6 mph /  4.2 km/h 60 % 0 in /  0.0 mm
14:56 64.9 °F /  18.3 °C 50.4 °F /  10.2 °C 30 in /  1015.8 hPa SSW 3.5 mph /  5.6 km/h 3.5 mph /  5.6 km/h 59 % 0 in /  0.0 mm
15:06 64.8 °F /  18.2 °C 50.2 °F /  10.1 °C 30 in /  1014.8 hPa SW 5.4 mph /  8.7 km/h 5.4 mph /  8.7 km/h 59 % 0 in /  0.0 mm
15:16 64.4 °F /  18.0 °C 49.8 °F /  9.9 °C 30 in /  1014.8 hPa WSW 5.8 mph /  9.3 km/h 5.8 mph /  9.3 km/h 59 % 0 in /  0.0 mm
15:21 64.6 °F /  18.1 °C 49.8 °F /  9.9 °C 30 in /  1015.8 hPa West 5.8 mph /  9.3 km/h 5.8 mph /  9.3 km/h 59 % 0 in /  0.0 mm
15:26 64.6 °F /  18.1 °C 49.8 °F /  9.9 °C 30 in /  1015.8 hPa SW 5.8 mph /  9.3 km/h 5.8 mph /  9.3 km/h 59 % 0 in /  0.0 mm
15:31 64.6 °F /  18.1 °C 49.8 °F /  9.9 °C 30 in /  1015.8 hPa SSW 8.1 mph /  13.0 km/h 8.1 mph /  13.0 km/h 59 % 0 in /  0.0 mm
15:36 64.6 °F /  18.1 °C 49.8 °F /  9.9 °C 30 in /  1015.8 hPa South 5.6 mph /  9.0 km/h 5.6 mph /  9.0 km/h 59 % 0 in /  0.0 mm
15:41 64.6 °F /  18.1 °C 49.8 °F /  9.9 °C 30 in /  1015.8 hPa WSW 2.3 mph /  3.7 km/h 2.3 mph /  3.7 km/h 59 % 0 in /  0.0 mm
15:46 65.1 °F /  18.4 °C 50.4 °F /  10.2 °C 30 in /  1015.8 hPa SW 2.3 mph /  3.7 km/h 2.3 mph /  3.7 km/h 59 % 0 in /  0.0 mm
15:51 65.3 °F /  18.5 °C 50.5 °F /  10.3 °C 30 in /  1015.8 hPa SSW 2.3 mph /  3.7 km/h 2.3 mph /  3.7 km/h 59 % 0 in /  0.0 mm
16:06 64 °F /  17.8 °C 49.5 °F /  9.7 °C 30 in /  1015.8 hPa SSW 7.4 mph /  11.9 km/h 7.4 mph /  11.9 km/h 59 % 0 in /  0.0 mm
16:11 63.7 °F /  17.6 °C 49.1 °F /  9.5 °C 30 in /  1015.8 hPa WSW 3.5 mph /  5.6 km/h 3.5 mph /  5.6 km/h 59 % 0 in /  0.0 mm
16:16 63.9 °F /  17.7 °C 49.3 °F /  9.6 °C 30 in /  1015.8 hPa SW 3.6 mph /  5.8 km/h 3.6 mph /  5.8 km/h 59 % 0 in /  0.0 mm
16:21 63.9 °F /  17.7 °C 49.6 °F /  9.8 °C 30 in /  1015.8 hPa WSW 5.8 mph /  9.3 km/h 5.8 mph /  9.3 km/h 60 % 0 in /  0.0 mm
16:22 63.9 °F /  17.7 °C 49.6 °F /  9.8 °C 30 in /  1015.8 hPa SSW 5.8 mph /  9.3 km/h 5.8 mph /  9.3 km/h 60 % 0 in /  0.0 mm
16:32 63.1 °F /  17.3 °C 48.9 °F /  9.4 °C 30 in /  1015.8 hPa WSW 2.3 mph /  3.7 km/h 2.3 mph /  3.7 km/h 60 % 0 in /  0.0 mm
16:37 63 °F /  17.2 °C 48.9 °F /  9.4 °C 30 in /  1015.8 hPa SSW 3.5 mph /  5.6 km/h 3.5 mph /  5.6 km/h 60 % 0 in /  0.0 mm
16:42 62.8 °F /  17.1 °C 48.7 °F /  9.3 °C 30 in /  1015.8 hPa SW 5.8 mph /  9.3 km/h 5.8 mph /  9.3 km/h 60 % 0 in /  0.0 mm
16:52 62.1 °F /  16.7 °C 48.4 °F /  9.1 °C 30 in /  1015.8 hPa SW 2.3 mph /  3.7 km/h 2.3 mph /  3.7 km/h 61 % 0 in /  0.0 mm
17:07 61.2 °F /  16.2 °C 48 °F /  8.9 °C 30 in /  1015.8 hPa SW 2.3 mph /  3.7 km/h   62 % 0 in /  0.0 mm
17:12 60.8 °F /  16.0 °C 48 °F /  8.9 °C 30 in /  1015.8 hPa SW 3.3 mph /  5.3 km/h 3.3 mph /  5.3 km/h 63 % 0 in /  0.0 mm
17:17 60.3 °F /  15.7 °C 47.7 °F /  8.7 °C 30 in /  1015.8 hPa WSW 2.3 mph /  3.7 km/h 2.3 mph /  3.7 km/h 63 % 0 in /  0.0 mm
17:22 59.9 °F /  15.5 °C 47.3 °F /  8.5 °C 30 in /  1015.8 hPa SW 3.5 mph /  5.6 km/h 3.5 mph /  5.6 km/h 63 % 0 in /  0.0 mm
17:27 59.5 °F /  15.3 °C 47.3 °F /  8.5 °C 30 in /  1015.8 hPa WSW 2.3 mph /  3.7 km/h 2.3 mph /  3.7 km/h 64 % 0 in /  0.0 mm
17:37 58.6 °F /  14.8 °C 46.9 °F /  8.3 °C 30 in /  1015.8 hPa WSW 2.3 mph /  3.7 km/h 2.3 mph /  3.7 km/h 65 % 0 in /  0.0 mm
17:42 58.5 °F /  14.7 °C 46.8 °F /  8.2 °C 30 in /  1015.8 hPa WNW 1.4 mph /  2.3 km/h 1.6 mph /  2.6 km/h 65 % 0 in /  0.0 mm
17:52 57.9 °F /  14.4 °C 46.6 °F /  8.1 °C 30 in /  1015.8 hPa WSW 2.3 mph /  3.7 km/h 2.3 mph /  3.7 km/h 66 % 0 in /  0.0 mm
17:57 57.7 °F /  14.3 °C 46.6 °F /  8.1 °C 30 in /  1015.8 hPa West 2.3 mph /  3.7 km/h 2.3 mph /  3.7 km/h 66 % 0 in /  0.0 mm
18:02 57.6 °F /  14.2 °C 46.8 °F /  8.2 °C 30 in /  1016.8 hPa WSW 2.3 mph /  3.7 km/h 2.3 mph /  3.7 km/h 67 % 0 in /  0.0 mm
18:07 57.2 °F /  14.0 °C 46.2 °F /  7.9 °C 30 in /  1016.8 hPa West 2.3 mph /  3.7 km/h 2.3 mph /  3.7 km/h 67 % 0 in /  0.0 mm
18:12 57.2 °F /  14.0 °C 46.8 °F /  8.2 °C 30 in /  1016.8 hPa SW 3.5 mph /  5.6 km/h 3.5 mph /  5.6 km/h 68 % 0 in /  0.0 mm
18:17 57.2 °F /  14.0 °C 47.1 °F /  8.4 °C 30 in /  1016.8 hPa WSW 3.5 mph /  5.6 km/h 3.5 mph /  5.6 km/h 69 % 0 in /  0.0 mm
18:22 57 °F /  13.9 °C 46.9 °F /  8.3 °C 30 in /  1016.8 hPa WSW 3.5 mph /  5.6 km/h 3.5 mph /  5.6 km/h 69 % 0 in /  0.0 mm
18:27 56.8 °F /  13.8 °C 47.1 °F /  8.4 °C 30 in /  1016.8 hPa WNW 2.3 mph /  3.7 km/h 2.3 mph /  3.7 km/h 70 % 0 in /  0.0 mm
18:32 56.7 °F /  13.7 °C 46.9 °F /  8.3 °C 30 in /  1015.8 hPa WNW 3.5 mph /  5.6 km/h 3.5 mph /  5.6 km/h 70 % 0 in /  0.0 mm
18:37 56.3 °F /  13.5 °C 46.9 °F /  8.3 °C 30 in /  1015.8 hPa South 4.3 mph /  6.9 km/h 4.3 mph /  6.9 km/h 71 % 0 in /  0.0 mm
18:47 55.9 °F /  13.3 °C 46.9 °F /  8.3 °C 30 in /  1016.8 hPa WSW 1.4 mph /  2.3 km/h 2 mph /  3.2 km/h 72 % 0 in /  0.0 mm
18:52 55.6 °F /  13.1 °C 47.1 °F /  8.4 °C 30 in /  1016.8 hPa SW 2.6 mph /  4.2 km/h 2.6 mph /  4.2 km/h 73 % 0 in /  0.0 mm
18:57 55.4 °F /  13.0 °C 46.9 °F /  8.3 °C 30 in /  1016.8 hPa WSW 2.3 mph /  3.7 km/h 2.3 mph /  3.7 km/h 73 % 0 in /  0.0 mm
19:07 55.2 °F /  12.9 °C 46.8 °F /  8.2 °C 30 in /  1016.8 hPa WSW 2.6 mph /  4.2 km/h 2.6 mph /  4.2 km/h 73 % 0 in /  0.0 mm
19:17 55 °F /  12.8 °C 46.9 °F /  8.3 °C 30 in /  1016.8 hPa SW 4.6 mph /  7.4 km/h 4.6 mph /  7.4 km/h 74 % 0 in /  0.0 mm
19:32 54.5 °F /  12.5 °C 47.1 °F /  8.4 °C 30 in /  1016.8 hPa SW 2.3 mph /  3.7 km/h 2.3 mph /  3.7 km/h 76 % 0 in /  0.0 mm
19:38 54.3 °F /  12.4 °C 46.9 °F /  8.3 °C 30 in /  1016.8 hPa West 2.4 mph /  3.9 km/h 2.4 mph /  3.9 km/h 76 % 0 in /  0.0 mm
19:43 54.1 °F /  12.3 °C 46.8 °F /  8.2 °C 30 in /  1016.8 hPa West 2.3 mph /  3.7 km/h 2.3 mph /  3.7 km/h 76 % 0 in /  0.0 mm
19:45 44.2 °F /  6.8 °C 39.4 °F /  4.1 °C 30 in /  1016.8 hPa Calm     83 % 0 in /  0.0 mm
19:48 54 °F /  12.2 °C 46.6 °F /  8.1 °C 30 in /  1016.8 hPa WSW 3.5 mph /  5.6 km/h 3.5 mph /  5.6 km/h 76 % 0 in /  0.0 mm
19:53 53.8 °F /  12.1 °C 46.4 °F /  8.0 °C 30 in /  1016.8 hPa SW 2.3 mph /  3.7 km/h 2.3 mph /  3.7 km/h 76 % 0 in /  0.0 mm
19:55 44.2 °F /  6.8 °C 39.7 °F /  4.3 °C 30.1 in /  1017.8 hPa SW 1 mph /  1.6 km/h 2 mph /  3.2 km/h 84 % 0 in /  0.0 mm
19:58 53.6 °F /  12.0 °C 46.2 °F /  7.9 °C 30 in /  1016.8 hPa WSW 2.9 mph /  4.7 km/h 2.9 mph /  4.7 km/h 76 % 0 in /  0.0 mm
20:03 53.4 °F /  11.9 °C 46 °F /  7.8 °C 30 in /  1016.8 hPa WSW 2.6 mph /  4.2 km/h 2.6 mph /  4.2 km/h 76 % 0 in /  0.0 mm
20:05 44.2 °F /  6.8 °C 39.7 °F /  4.3 °C 30.1 in /  1017.8 hPa Calm     84 % 0 in /  0.0 mm
20:13 53.2 °F /  11.8 °C 46.2 °F /  7.9 °C 30 in /  1016.8 hPa WSW 3.5 mph /  5.6 km/h 3.5 mph /  5.6 km/h 77 % 0 in /  0.0 mm
20:15 44.4 °F /  6.9 °C 39.9 °F /  4.4 °C 30.1 in /  1017.8 hPa Calm   1 mph /  1.6 km/h 84 % 0 in /  0.0 mm
20:23 53.1 °F /  11.7 °C 46.4 °F /  8.0 °C 30 in /  1015.8 hPa WSW 2.3 mph /  3.7 km/h 2.3 mph /  3.7 km/h 78 % 0 in /  0.0 mm
20:25 44.2 °F /  6.8 °C 39.7 °F /  4.3 °C 30.1 in /  1017.8 hPa Calm     84 % 0 in /  0.0 mm
20:45 43.3 °F /  6.3 °C 38.8 °F /  3.8 °C 30.1 in /  1017.8 hPa Calm   1 mph /  1.6 km/h 84 % 0 in /  0.0 mm
20:48 53.1 °F /  11.7 °C 46.8 °F /  8.2 °C 30 in /  1016.8 hPa WSW 2.3 mph /  3.7 km/h 2.3 mph /  3.7 km/h 79 % 0 in /  0.0 mm
20:53 52.9 °F /  11.6 °C 46.6 °F /  8.1 °C 30 in /  1016.8 hPa SW 1.2 mph /  1.9 km/h   79 % 0 in /  0.0 mm
20:58 52.9 °F /  11.6 °C 46.6 °F /  8.1 °C 30 in /  1016.8 hPa SW 2.4 mph /  3.9 km/h 2.4 mph /  3.9 km/h 79 % 0 in /  0.0 mm
21:08 52.5 °F /  11.4 °C 46.2 °F /  7.9 °C 30 in /  1016.8 hPa WSW 2.3 mph /  3.7 km/h 2.3 mph /  3.7 km/h 79 % 0 in /  0.0 mm
21:15 42.8 °F /  6.0 °C 37.9 °F /  3.3 °C 30.1 in /  1017.8 hPa WSW 2 mph /  3.2 km/h 2 mph /  3.2 km/h 83 % 0 in /  0.0 mm
21:18 52.3 °F /  11.3 °C 46.4 °F /  8.0 °C 30 in /  1016.8 hPa West 1.2 mph /  1.9 km/h   80 % 0 in /  0.0 mm
21:25 42.3 °F /  5.7 °C 37.6 °F /  3.1 °C 30.1 in /  1017.8 hPa Calm   2 mph /  3.2 km/h 83 % 0 in /  0.0 mm
21:28 52 °F /  11.1 °C 46 °F /  7.8 °C 30 in /  1016.8 hPa Calm     80 % 0 in /  0.0 mm
21:33 52 °F /  11.1 °C 46 °F /  7.8 °C 30 in /  1016.8 hPa Calm     80 % 0 in /  0.0 mm
21:34 52 °F /  11.1 °C 46.2 °F /  7.9 °C 30 in /  1016.8 hPa Calm     81 % 0 in /  0.0 mm
21:35 42.4 °F /  5.8 °C 37.6 °F /  3.1 °C 30.1 in /  1017.8 hPa SW 2 mph /  3.2 km/h 2 mph /  3.2 km/h 83 % 0 in /  0.0 mm
21:44 52.2 °F /  11.2 °C 46.2 °F /  7.9 °C 30 in /  1016.8 hPa Calm     80 % 0 in /  0.0 mm
21:49 52.2 °F /  11.2 °C 46.6 °F /  8.1 °C 30 in /  1016.8 hPa Calm     81 % 0 in /  0.0 mm
21:54 52.3 °F /  11.3 °C 46.4 °F /  8.0 °C 30 in /  1016.8 hPa WNW 2.3 mph /  3.7 km/h 2.3 mph /  3.7 km/h 80 % 0 in /  0.0 mm
21:55 42.8 °F /  6.0 °C 38.3 °F /  3.5 °C 30.1 in /  1017.8 hPa Calm     84 % 0 in /  0.0 mm
21:59 52.2 °F /  11.2 °C 46.2 °F /  7.9 °C 30 in /  1016.8 hPa North 1.4 mph /  2.3 km/h   80 % 0 in /  0.0 mm
22:04 51.8 °F /  11.0 °C 46.2 °F /  7.9 °C 30 in /  1016.8 hPa Calm     81 % 0 in /  0.0 mm
22:09 51.6 °F /  10.9 °C 45.7 °F /  7.6 °C 30 in /  1016.8 hPa Calm     80 % 0 in /  0.0 mm
22:24 51.1 °F /  10.6 °C 45.5 °F /  7.5 °C 30 in /  1016.8 hPa Calm     81 % 0 in /  0.0 mm
22:25 43.7 °F /  6.5 °C 39.6 °F /  4.2 °C 30.1 in /  1017.8 hPa Calm   1 mph /  1.6 km/h 85 % 0 in /  0.0 mm
22:29 50.7 °F /  10.4 °C 44.8 °F /  7.1 °C 30 in /  1016.8 hPa West 2.3 mph /  3.7 km/h 2.3 mph /  3.7 km/h 80 % 0 in /  0.0 mm
22:34 50.7 °F /  10.4 °C 44.8 °F /  7.1 °C 30 in /  1016.8 hPa WSW 2.3 mph /  3.7 km/h 2.3 mph /  3.7 km/h 80 % 0 in /  0.0 mm
22:39 50.7 °F /  10.4 °C 44.8 °F /  7.1 °C 30 in /  1016.8 hPa WSW 2.3 mph /  3.7 km/h 2.3 mph /  3.7 km/h 80 % 0 in /  0.0 mm
22:44 50.5 °F /  10.3 °C 45 °F /  7.2 °C 30 in /  1016.8 hPa SW 1.4 mph /  2.3 km/h 1.4 mph /  2.3 km/h 81 % 0 in /  0.0 mm
22:54 49.6 °F /  9.8 °C 43.7 °F /  6.5 °C 30.1 in /  1017.8 hPa SW 2 mph /  3.2 km/h 2 mph /  3.2 km/h 80 % 0 in /  0.0 mm
22:55 42.4 °F /  5.8 °C 37.9 °F /  3.3 °C 30.1 in /  1017.8 hPa SW 2 mph /  3.2 km/h 3 mph /  4.8 km/h 84 % 0 in /  0.0 mm
22:59 49.5 °F /  9.7 °C 43.5 °F /  6.4 °C 30.1 in /  1017.8 hPa SW 1.2 mph /  1.9 km/h 1.2 mph /  1.9 km/h 80 % 0 in /  0.0 mm
23:04 49.3 °F /  9.6 °C 43.7 °F /  6.5 °C 30.1 in /  1017.8 hPa SSE 1.2 mph /  1.9 km/h   81 % 0 in /  0.0 mm
23:05 42.1 °F /  5.6 °C 37.2 °F /  2.9 °C 30.1 in /  1017.8 hPa SW 2 mph /  3.2 km/h 4 mph /  6.4 km/h 83 % 0 in /  0.0 mm
23:09 49.1 °F /  9.5 °C 43.5 °F /  6.4 °C 30.1 in /  1017.8 hPa WSW 1.4 mph /  2.3 km/h 1.4 mph /  2.3 km/h 81 % 0 in /  0.0 mm
23:14 48.9 °F /  9.4 °C 43.3 °F /  6.3 °C 30.1 in /  1017.8 hPa SW 2.3 mph /  3.7 km/h 2.3 mph /  3.7 km/h 81 % 0 in /  0.0 mm
23:15 41.7 °F /  5.4 °C 36.9 °F /  2.7 °C 30.1 in /  1018.8 hPa SW 2 mph /  3.2 km/h 3 mph /  4.8 km/h 83 % 0 in /  0.0 mm
23:19 48.7 °F /  9.3 °C 43.2 °F /  6.2 °C 30.1 in /  1017.8 hPa Calm     81 % 0 in /  0.0 mm
23:24 48.6 °F /  9.2 °C 43 °F /  6.1 °C 30.1 in /  1017.8 hPa SW 2.3 mph /  3.7 km/h 2.3 mph /  3.7 km/h 81 % 0 in /  0.0 mm
23:25 42.1 °F /  5.6 °C 37.6 °F /  3.1 °C 30.1 in /  1017.8 hPa WSW 1 mph /  1.6 km/h 2 mph /  3.2 km/h 84 % 0 in /  0.0 mm
23:29 48.4 °F /  9.1 °C 42.4 °F /  5.8 °C 30.1 in /  1017.8 hPa SW 2.9 mph /  4.7 km/h 2.9 mph /  4.7 km/h 80 % 0 in /  0.0 mm
23:34 48.2 °F /  9.0 °C 42.3 °F /  5.7 °C 30.1 in /  1017.8 hPa SW 2.3 mph /  3.7 km/h 2.3 mph /  3.7 km/h 80 % 0 in /  0.0 mm
23:35 42.4 °F /  5.8 °C 38.1 °F /  3.4 °C 30.1 in /  1017.8 hPa Calm   1 mph /  1.6 km/h 85 % 0 in /  0.0 mm
23:39 47.8 °F /  8.8 °C 42.1 °F /  5.6 °C 30.1 in /  1017.8 hPa SW 2.3 mph /  3.7 km/h 2.3 mph /  3.7 km/h 80 % 0 in /  0.0 mm
23:44 47.7 °F /  8.7 °C 42.1 °F /  5.6 °C 30.1 in /  1017.8 hPa SW 2.3 mph /  3.7 km/h 2.3 mph /  3.7 km/h 81 % 0 in /  0.0 mm
23:45 43.7 °F /  6.5 °C 39.6 °F /  4.2 °C 30.1 in /  1017.8 hPa West 1 mph /  1.6 km/h 2 mph /  3.2 km/h 85 % 0 in /  0.0 mm
23:54 47.3 °F /  8.5 °C 42.1 °F /  5.6 °C 30.1 in /  1017.8 hPa NNE 2.3 mph /  3.7 km/h 2.3 mph /  3.7 km/h 82 % 0 in /  0.0 mm
23:55 44.4 °F /  6.9 °C 40.3 °F /  4.6 °C 30.1 in /  1017.8 hPa Calm   2 mph /  3.2 km/h 85 % 0 in /  0.0 mm
23:59 47.3 °F /  8.5 °C 42.1 °F /  5.6 °C 30.1 in /  1017.8 hPa NW 2.3 mph /  3.7 km/h 2.3 mph /  3.7 km/h 82 % 0 in /  0.0 mm
Meteo Sesrovires
Elogis d' Weather Underground - 3.25 mb

Guio original per  Jim McMurry - jmcmurry@mwt.net Adaptat per a la plantilla per  Wim van der Kuil - Leuven-Template.eu

Trobareu la nostra informacio del temps tambe a:

Weather Underground

AWEKAS